Time;durP1;ratioP1;P1;durP2;ratioP2;P2;SDS_P1;SDS_P2;PMS_P1;PMS_P2;Temp;Humidity;BMP_temperature;BMP_pressure;BME280_temperature;BME280_humidity;BME280_pressure;Samples;Min_cycle;Max_cycle;Signal;HPM_P1;HPM_P2
2022/10/02 00:01:53;;;;;;;49.55;8.15;;;15.50;99.90;;;;;;5075457;28;20025;-69
2022/10/02 00:04:24;;;;;;;51.80;7.35;;;15.50;99.90;;;;;;5057321;28;20035;-68
2022/10/02 00:06:51;;;;;;;41.30;7.55;;;15.50;99.90;;;;;;5075295;28;20120;-71
2022/10/02 00:09:49;;;;;;;41.42;7.82;;;15.50;99.90;;;;;;5075225;28;20025;-68
2022/10/02 00:12:19;;;;;;;39.13;6.45;;;15.60;99.90;;;;;;5064242;28;20076;-67
2022/10/02 00:14:47;;;;;;;53.30;8.07;;;15.50;99.90;;;;;;5074868;28;20051;-67
2022/10/02 00:17:28;;;;;;;43.70;7.15;;;15.50;99.90;;;;;;5075179;28;20024;-68
2022/10/02 00:19:55;;;;;;;56.95;7.82;;;15.50;99.90;;;;;;5075036;28;20542;-67
2022/10/02 00:22:56;;;;;;;51.65;7.60;;;15.40;99.90;;;;;;5074956;28;20384;-68
2022/10/02 00:25:46;;;;;;;45.63;7.45;;;15.40;99.90;;;;;;5070904;28;20493;-67
2022/10/02 00:28:45;;;;;;;56.58;8.52;;;15.30;99.90;;;;;;5074553;28;20043;-67
2022/10/02 00:31:30;;;;;;;56.83;8.70;;;15.30;99.90;;;;;;5063225;28;20423;-67
2022/10/02 00:34:20;;;;;;;38.75;6.22;;;15.40;99.90;;;;;;5074370;28;20587;-67
2022/10/02 00:36:55;;;;;;;60.97;7.53;;;15.50;99.90;;;;;;5074441;28;20562;-67
2022/10/02 00:39:35;;;;;;;46.90;7.88;;;15.60;99.90;;;;;;5074636;28;20029;-67
2022/10/02 00:42:01;;;;;;;46.10;7.15;;;15.60;99.90;;;;;;5074350;28;20037;-67
2022/10/02 00:44:30;;;;;;;48.55;7.15;;;15.50;99.90;;;;;;5056448;28;20074;-68
2022/10/02 00:47:41;;;;;;;49.42;8.93;;;15.60;99.90;;;;;;5074525;28;20556;-67
2022/10/02 00:50:41;;;;;;;49.07;7.70;;;15.60;99.90;;;;;;4983209;28;20069;-67
2022/10/02 00:53:19;;;;;;;40.65;7.32;;;15.50;99.90;;;;;;4993031;28;20124;-67
2022/10/02 00:55:56;;;;;;;49.78;8.20;;;15.50;99.90;;;;;;5055673;28;20139;-67
2022/10/02 00:58:34;;;;;;;43.63;8.55;;;15.50;99.90;;;;;;5074457;28;20481;-67
2022/10/02 01:01:14;;;;;;;39.83;6.38;;;15.50;99.90;;;;;;5056063;28;20033;-68
2022/10/02 01:03:52;;;;;;;49.47;8.43;;;15.40;99.90;;;;;;5074179;28;20028;-67
2022/10/02 01:06:21;;;;;;;54.38;7.50;;;15.50;99.90;;;;;;5056162;28;20044;-67
2022/10/02 01:08:47;;;;;;;42.45;7.10;;;15.60;99.90;;;;;;5071975;28;20039;-67
2022/10/02 01:11:12;;;;;;;51.38;7.90;;;15.60;99.90;;;;;;5073671;28;20029;-67
2022/10/02 01:13:38;;;;;;;45.58;7.20;;;15.50;99.90;;;;;;5073556;28;20025;-67
2022/10/02 01:16:11;;;;;;;38.17;6.18;;;15.40;99.90;;;;;;5073633;28;20020;-68
2022/10/02 01:18:37;;;;;;;54.78;9.25;;;15.50;99.90;;;;;;5073963;28;20522;-68
2022/10/02 01:21:25;;;;;;;53.58;7.47;;;15.60;99.90;;;;;;5073694;28;20047;-67
2022/10/02 01:24:18;;;;;;;52.33;7.38;;;15.60;99.90;;;;;;5073359;28;20020;-68
2022/10/02 01:26:44;;;;;;;45.13;7.82;;;15.60;99.90;;;;;;5073141;28;20036;-68
2022/10/02 01:29:10;;;;;;;48.63;8.05;;;15.50;99.90;;;;;;5073798;28;20495;-68
2022/10/02 01:31:36;;;;;;;44.10;7.63;;;15.50;99.90;;;;;;5073384;28;20127;-67
2022/10/02 01:34:02;;;;;;;47.45;8.55;;;15.50;99.90;;;;;;5055658;28;20029;-67
2022/10/02 01:36:29;;;;;;;47.70;8.75;;;15.50;99.90;;;;;;5073163;28;20075;-67
2022/10/02 01:38:55;;;;;;;46.50;7.97;;;15.60;99.90;;;;;;5073268;28;20024;-67
2022/10/02 01:41:20;;;;;;;50.08;7.35;;;15.70;99.90;;;;;;5073500;28;20044;-67
2022/10/02 01:43:59;;;;;;;36.63;6.57;;;15.80;99.90;;;;;;5073242;28;20054;-67
2022/10/02 01:46:34;;;;;;;42.35;6.20;;;15.80;99.90;;;;;;5072487;28;20072;-67
2022/10/02 01:49:18;;;;;;;41.45;6.78;;;15.60;99.90;;;;;;5073152;28;20431;-67
2022/10/02 01:52:03;;;;;;;41.08;6.82;;;15.50;99.90;;;;;;5073077;28;20059;-67
2022/10/02 01:55:05;;;;;;;38.42;7.25;;;15.60;99.90;;;;;;5072988;28;20106;-68
2022/10/02 01:57:55;;;;;;;45.53;7.57;;;15.70;99.90;;;;;;5072828;28;20036;-67
2022/10/02 02:00:24;;;;;;;41.83;7.35;;;15.80;99.90;;;;;;5073142;28;20028;-67
2022/10/02 02:03:21;;;;;;;35.70;7.13;;;15.80;99.90;;;;;;5073107;28;20028;-67
2022/10/02 02:05:54;;;;;;;41.63;8.32;;;15.80;99.90;;;;;;5072640;28;20043;-67
2022/10/02 02:08:52;;;;;;;39.47;7.88;;;15.80;99.90;;;;;;5073187;28;20047;-67
2022/10/02 02:11:20;;;;;;;45.22;7.55;;;15.80;99.90;;;;;;5072946;28;20024;-67
2022/10/02 02:14:11;;;;;;;35.65;6.13;;;16.00;99.90;;;;;;5073046;28;20021;-67
2022/10/02 02:16:40;;;;;;;41.03;7.10;;;15.90;99.90;;;;;;5061492;28;20020;-67
2022/10/02 02:19:26;;;;;;;41.95;7.25;;;15.90;99.90;;;;;;5054932;28;20107;-67
2022/10/02 02:21:59;;;;;;;45.25;7.13;;;16.00;99.90;;;;;;5072388;28;20029;-68
2022/10/02 02:24:56;;;;;;;41.53;6.28;;;15.90;99.90;;;;;;5072662;28;20032;-67
2022/10/02 02:27:28;;;;;;;49.50;7.60;;;15.90;99.90;;;;;;5072549;28;20041;-67
2022/10/02 02:29:57;;;;;;;;;;;15.90;99.90;;;;;;5073142;28;20028;-68
2022/10/02 02:32:29;;;;;;;41.00;6.70;;;15.90;99.90;;;;;;5072577;28;19979;-67
2022/10/02 02:35:11;;;;;;;51.90;8.10;;;16.10;99.90;;;;;;5072629;28;20498;-67
2022/10/02 02:37:41;;;;;;;45.47;6.50;;;16.10;99.90;;;;;;5072509;28;20032;-71
2022/10/02 02:40:13;;;;;;;35.70;7.25;;;15.80;99.90;;;;;;5072362;28;20037;-72
2022/10/02 02:42:52;;;;;;;45.38;7.38;;;15.80;99.90;;;;;;5072718;28;20033;-67
2022/10/02 02:45:26;;;;;;;44.63;7.15;;;15.70;99.90;;;;;;5072478;28;20020;-67
2022/10/02 02:48:02;;;;;;;47.70;7.38;;;15.60;99.90;;;;;;5072466;28;20032;-67
2022/10/02 02:50:42;;;;;;;36.35;7.22;;;15.70;99.90;;;;;;5072623;28;20445;-67
2022/10/02 02:53:21;;;;;;;48.65;6.50;;;15.70;99.90;;;;;;5072092;28;20033;-67
2022/10/02 02:55:51;;;;;;;38.63;6.55;;;16.00;99.90;;;;;;5072354;28;20116;-68
2022/10/02 02:58:26;;;;;;;34.55;5.93;;;16.00;99.90;;;;;;5073522;28;20033;-67
2022/10/02 03:00:53;;;;;;;40.05;6.00;;;15.90;99.90;;;;;;5076651;28;20107;-67
2022/10/02 03:03:18;;;;;;;39.15;7.40;;;16.10;99.90;;;;;;5076264;28;20029;-67
2022/10/02 03:05:49;;;;;;;44.58;7.70;;;16.10;99.90;;;;;;5058428;28;20040;-67
2022/10/02 03:08:36;;;;;;;35.33;5.78;;;16.10;99.90;;;;;;5076289;28;20112;-67
2022/10/02 03:11:17;;;;;;;37.13;5.85;;;16.10;99.90;;;;;;5076227;28;20054;-67
2022/10/02 03:14:20;;;;;;;39.35;7.22;;;16.00;99.90;;;;;;5076092;28;20377;-67
2022/10/02 03:17:18;;;;;;;33.13;6.47;;;16.00;99.90;;;;;;5076100;28;20016;-67
2022/10/02 03:19:50;;;;;;;34.50;5.68;;;16.00;99.90;;;;;;5076189;28;20108;-67
2022/10/02 03:22:35;;;;;;;34.40;5.40;;;16.00;99.90;;;;;;5075711;28;20040;-67
2022/10/02 03:25:09;;;;;;;29.15;5.03;;;15.90;99.90;;;;;;5062828;28;20024;-67
2022/10/02 03:27:39;;;;;;;37.10;6.05;;;15.80;99.90;;;;;;5075725;28;20186;-68
2022/10/02 03:30:10;;;;;;;37.92;6.95;;;15.70;99.90;;;;;;5076031;28;20059;-67
2022/10/02 03:32:38;;;;;;;28.45;5.35;;;15.70;99.90;;;;;;5075925;28;20036;-67
2022/10/02 03:35:07;;;;;;;34.15;6.07;;;15.80;99.90;;;;;;5075460;28;20020;-67
2022/10/02 03:37:33;;;;;;;36.83;6.45;;;15.70;99.90;;;;;;5075676;28;20024;-67
2022/10/02 03:40:04;;;;;;;33.00;6.45;;;15.60;99.90;;;;;;5075753;28;20047;-67
2022/10/02 03:42:32;;;;;;;29.88;6.72;;;15.80;99.90;;;;;;5075759;28;20036;-67
2022/10/02 03:44:58;;;;;;;36.97;5.00;;;15.70;99.90;;;;;;5075526;28;20020;-67
2022/10/02 03:47:23;;;;;;;28.05;5.32;;;15.80;99.90;;;;;;5075474;28;20036;-67
2022/10/02 03:49:49;;;;;;;37.45;5.68;;;15.60;99.90;;;;;;5075222;28;20082;-67
2022/10/02 03:52:19;;;;;;;36.13;5.72;;;15.70;99.90;;;;;;5075488;28;20044;-68
2022/10/02 03:54:47;;;;;;;36.83;5.72;;;15.70;99.90;;;;;;5075426;28;20028;-67
2022/10/02 03:57:18;;;;;;;31.90;5.55;;;15.80;99.90;;;;;;5075456;28;20495;-68
2022/10/02 03:59:59;;;;;;;30.30;5.00;;;16.00;99.90;;;;;;5075503;28;20033;-67
2022/10/02 04:02:39;;;;;;;31.65;4.68;;;15.90;99.90;;;;;;5062373;28;20031;-68
2022/10/02 04:05:08;;;;;;;29.23;4.88;;;15.80;99.90;;;;;;5074749;28;20077;-67
2022/10/02 04:07:38;;;;;;;31.25;5.15;;;15.90;99.90;;;;;;5075557;28;20378;-67
2022/10/02 04:10:52;;;;;;;24.83;4.93;;;16.00;99.90;;;;;;5074404;28;20556;-67
2022/10/02 04:13:47;;;;;;;24.02;4.72;;;15.80;99.90;;;;;;5025389;28;20037;-68
2022/10/02 04:16:31;;;;;;;29.60;6.00;;;16.00;99.90;;;;;;5032850;28;20043;-68
2022/10/02 04:19:09;;;;;;;28.92;4.90;;;16.00;99.90;;;;;;5066119;28;20041;-68
2022/10/02 04:21:47;;;;;;;33.28;5.43;;;15.80;99.90;;;;;;5061952;28;20071;-68
2022/10/02 04:24:31;;;;;;;24.00;4.53;;;15.80;99.90;;;;;;5074858;28;20465;-67
2022/10/02 04:27:30;;;;;;;29.52;5.13;;;15.70;99.90;;;;;;5074863;28;20443;-68
2022/10/02 04:30:02;;;;;;;31.75;5.47;;;15.70;99.90;;;;;;5048109;28;20037;-69
2022/10/02 04:32:33;;;;;;;27.35;4.50;;;15.70;99.90;;;;;;5074681;28;20028;-72
2022/10/02 04:34:59;;;;;;;25.20;5.10;;;15.60;99.90;;;;;;5056864;28;20439;-72
2022/10/02 04:38:06;;;;;;;26.50;4.72;;;15.60;99.90;;;;;;5074685;28;20027;-68
2022/10/02 04:40:54;;;;;;;31.35;4.72;;;15.70;99.90;;;;;;5045630;28;20040;-67
2022/10/02 04:43:58;;;;;;;20.83;4.30;;;15.60;99.90;;;;;;5074374;28;20032;-67
2022/10/02 04:46:36;;;;;;;34.15;4.50;;;15.50;99.90;;;;;;5043781;28;20472;-67
2022/10/02 04:49:10;;;;;;;30.00;4.47;;;15.70;99.90;;;;;;5074195;28;20032;-67
2022/10/02 04:51:54;;;;;;;28.80;4.38;;;15.40;99.90;;;;;;5074437;28;20033;-67
2022/10/02 04:55:07;;;;;;;24.80;5.22;;;15.40;99.90;;;;;;5074345;28;20043;-67
2022/10/02 04:57:54;;;;;;;18.95;3.95;;;15.40;99.90;;;;;;4993028;28;20092;-67
2022/10/02 05:00:23;;;;;;;27.17;4.45;;;15.40;99.90;;;;;;4992732;28;20034;-67
2022/10/02 05:03:10;;;;;;;36.80;5.03;;;15.30;99.90;;;;;;5044335;28;20041;-67
2022/10/02 05:06:12;;;;;;;29.40;5.22;;;15.10;99.90;;;;;;5073815;28;20036;-67
2022/10/02 05:08:44;;;;;;;;;;;15.20;99.90;;;;;;5074591;28;20461;-67
2022/10/02 05:11:32;;;;;;;23.38;4.22;;;15.20;99.90;;;;;;5056237;28;20007;-67
2022/10/02 05:14:03;;;;;;;27.92;4.18;;;15.30;99.90;;;;;;5073996;28;20024;-67
2022/10/02 05:16:50;;;;;;;27.55;5.38;;;15.30;99.90;;;;;;5073381;28;20048;-67
2022/10/02 05:19:25;;;;;;;23.75;4.50;;;15.10;99.90;;;;;;5073860;28;20035;-67
2022/10/02 05:22:15;;;;;;;23.58;4.60;;;15.00;99.90;;;;;;5073880;28;20054;-67
2022/10/02 05:24:52;;;;;;;24.85;4.13;;;15.20;99.90;;;;;;5073274;28;20058;-67
2022/10/02 05:27:44;;;;;;;22.42;4.20;;;14.80;99.90;;;;;;5073659;28;20033;-67
2022/10/02 05:30:16;;;;;;;25.40;4.35;;;14.90;99.90;;;;;;5055339;28;20495;-67
2022/10/02 05:32:54;;;;;;;;;;;14.90;99.90;;;;;;5073802;28;20047;-67
2022/10/02 05:35:57;;;;;;;22.92;4.50;;;14.70;99.90;;;;;;5073510;28;20369;-67
2022/10/02 05:38:37;;;;;;;29.73;5.30;;;14.60;99.90;;;;;;5073132;28;20036;-68
2022/10/02 05:41:12;;;;;;;19.35;4.10;;;14.50;99.90;;;;;;5073400;28;20028;-67
2022/10/02 05:43:50;;;;;;;22.10;3.90;;;14.70;99.90;;;;;;5073647;28;20423;-67
2022/10/02 05:46:22;;;;;;;24.00;4.53;;;14.60;99.90;;;;;;5072910;28;20047;-67
2022/10/02 05:48:58;;;;;;;25.63;4.30;;;14.60;99.90;;;;;;5073470;28;20020;-67
2022/10/02 05:51:49;;;;;;;17.13;3.92;;;14.50;99.90;;;;;;5073001;28;20039;-67
2022/10/02 05:54:36;;;;;;;20.80;3.60;;;14.50;99.90;;;;;;5073082;28;20126;-67
2022/10/02 05:57:35;;;;;;;22.88;3.80;;;14.50;99.90;;;;;;5039807;28;20392;-68
2022/10/02 06:00:20;;;;;;;18.60;3.95;;;14.60;99.90;;;;;;5047426;28;20081;-68
2022/10/02 06:03:02;;;;;;;28.67;4.85;;;14.30;99.90;;;;;;5062311;28;20454;-68
2022/10/02 06:05:43;;;;;;;23.00;4.47;;;14.40;99.90;;;;;;5066476;28;20048;-68
2022/10/02 06:08:13;;;;;;;16.13;3.83;;;14.40;99.90;;;;;;5047296;28;20102;-67
2022/10/02 06:10:47;;;;;;;27.88;3.92;;;14.40;99.90;;;;;;5067285;28;20411;-68
2022/10/02 06:13:26;;;;;;;16.30;3.45;;;14.70;99.90;;;;;;5068431;28;20032;-68
2022/10/02 06:16:03;;;;;;;22.15;3.75;;;14.60;99.90;;;;;;5067862;28;20090;-68
2022/10/02 06:18:32;;;;;;;20.70;3.83;;;14.60;99.90;;;;;;5068648;28;20083;-68
2022/10/02 06:21:10;;;;;;;26.30;4.22;;;14.60;99.90;;;;;;5048515;28;20320;-68
2022/10/02 06:23:47;;;;;;;26.33;4.95;;;14.80;99.90;;;;;;5059759;28;20031;-68
2022/10/02 06:26:36;;;;;;;19.70;4.18;;;14.70;99.90;;;;;;5067726;28;20051;-71
2022/10/02 06:29:08;;;;;;;17.80;3.58;;;14.70;99.90;;;;;;5059473;28;20098;-71
2022/10/02 06:31:45;;;;;;;21.23;4.30;;;14.50;99.90;;;;;;5068121;28;20058;-71
2022/10/02 06:34:13;;;;;;;21.60;4.45;;;14.50;99.90;;;;;;5067929;28;20040;-71
2022/10/02 06:36:54;;;;;;;22.42;4.72;;;14.60;99.90;;;;;;5067045;28;20024;-71
2022/10/02 06:39:52;;;;;;;25.70;5.15;;;14.60;99.90;;;;;;5068208;28;20477;-71
2022/10/02 06:42:55;;;;;;;25.15;5.45;;;14.60;99.90;;;;;;4996433;28;20501;-68
2022/10/02 06:45:51;;;;;;;23.05;5.10;;;14.40;99.90;;;;;;5036425;28;20029;-70
2022/10/02 06:48:33;;;;;;;24.65;4.88;;;14.50;99.90;;;;;;5065312;28;20409;-71
2022/10/02 06:51:17;;;;;;;26.10;5.32;;;14.60;99.90;;;;;;5049929;28;20024;-71
2022/10/02 06:53:43;;;;;;;27.38;5.97;;;14.70;99.90;;;;;;5067934;28;20036;-70
2022/10/02 06:56:23;;;;;;;24.15;5.60;;;14.60;99.90;;;;;;5073829;28;20039;-71
2022/10/02 06:59:10;;;;;;;29.02;6.05;;;14.70;99.90;;;;;;5040680;28;20070;-71
2022/10/02 07:01:58;;;;;;;33.15;6.22;;;14.80;99.90;;;;;;5044334;28;20064;-71
2022/10/02 07:04:45;;;;;;;25.45;6.63;;;14.80;99.90;;;;;;5049788;28;20025;-70
2022/10/02 07:07:26;;;;;;;26.20;6.45;;;14.70;99.90;;;;;;5067773;28;20484;-68
2022/10/02 07:10:19;;;;;;;34.70;6.85;;;14.90;99.90;;;;;;5062226;28;20029;-69
2022/10/02 07:13:29;;;;;;;20.15;7.35;;;15.10;99.90;;;;;;5049565;28;20951;-68
2022/10/02 07:16:13;;;;;;;31.58;7.75;;;15.10;99.90;;;;;;5066967;28;20052;-68
2022/10/02 07:18:57;;;;;;;28.25;7.93;;;15.00;99.90;;;;;;5070522;28;20064;-68
2022/10/02 07:21:51;;;;;;;29.25;8.90;;;15.00;99.90;;;;;;5072102;28;20534;-69
2022/10/02 07:24:24;;;;;;;29.33;8.07;;;15.00;99.90;;;;;;5071009;28;20024;-68
2022/10/02 07:26:53;;;;;;;25.45;9.15;;;15.20;99.90;;;;;;5071449;28;20049;-68
2022/10/02 07:29:42;;;;;;;21.38;6.80;;;15.20;99.90;;;;;;5071753;28;20029;-68
2022/10/02 07:32:42;;;;;;;24.80;7.43;;;15.10;99.90;;;;;;5071834;28;20038;-68
2022/10/02 07:35:31;;;;;;;24.50;7.55;;;15.10;99.90;;;;;;5052533;28;20029;-68
2022/10/02 07:38:06;;;;;;;20.27;7.80;;;15.00;99.90;;;;;;5049500;28;20024;-68
2022/10/02 07:40:41;;;;;;;21.23;7.13;;;14.90;99.90;;;;;;5033091;28;20089;-68
2022/10/02 07:43:26;;;;;;;17.73;7.25;;;15.10;99.90;;;;;;5071101;28;20035;-71
2022/10/02 07:46:00;;;;;;;27.88;8.10;;;15.20;99.90;;;;;;5073448;28;20044;-68
2022/10/02 07:48:29;;;;;;;23.33;8.00;;;15.40;99.90;;;;;;5074803;28;20032;-68
2022/10/02 07:54:38;;;;;;;20.70;8.25;;;15.10;99.90;;;;;;5073557;28;20043;-68
2022/10/02 07:57:25;;;;;;;25.83;9.07;;;15.10;99.90;;;;;;5074522;28;20044;-68
2022/10/02 08:00:24;;;;;;;33.03;9.40;;;15.10;99.90;;;;;;5074785;28;20450;-69
2022/10/02 08:03:05;;;;;;;25.00;9.13;;;15.20;99.90;;;;;;5025015;28;20043;-68
2022/10/02 08:05:51;;;;;;;27.98;9.80;;;15.10;99.90;;;;;;5074610;28;20054;-68
2022/10/02 08:08:48;;;;;;;24.30;8.35;;;15.00;99.90;;;;;;5074449;28;20024;-68
2022/10/02 08:11:34;;;;;;;19.58;7.68;;;15.10;99.90;;;;;;5073493;28;20048;-68
2022/10/02 08:14:10;;;;;;;21.58;8.00;;;15.20;99.90;;;;;;5074540;28;20033;-67
2022/10/02 08:16:41;;;;;;;23.15;8.77;;;15.10;99.90;;;;;;5081811;28;20039;-68
2022/10/02 08:19:15;;;;;;;22.67;8.00;;;15.30;99.90;;;;;;5079993;28;20129;-68
2022/10/02 08:21:47;;;;;;;25.75;7.97;;;15.20;99.90;;;;;;5074502;28;20033;-68
2022/10/02 08:24:21;;;;;;;26.83;8.52;;;15.40;99.90;;;;;;5074240;28;20469;-67
2022/10/02 08:26:57;;;;;;;26.15;7.95;;;15.50;99.90;;;;;;5074137;28;20040;-68
2022/10/02 08:29:33;;;;;;;21.42;7.85;;;15.60;99.90;;;;;;5073989;28;20024;-68
2022/10/02 08:31:59;;;;;;;25.42;7.88;;;15.60;99.90;;;;;;5072873;28;20481;-69
2022/10/02 08:34:26;;;;;;;25.60;7.88;;;15.70;99.90;;;;;;5073976;28;20027;-68
2022/10/02 08:37:04;;;;;;;20.83;7.78;;;15.70;99.90;;;;;;5074161;28;20017;-68
2022/10/02 08:39:51;;;;;;;23.38;8.23;;;15.90;99.90;;;;;;5071071;28;20542;-68
2022/10/02 08:42:32;;;;;;;25.38;8.77;;;15.90;99.90;;;;;;5072327;28;20032;-68
2022/10/02 08:45:16;;;;;;;26.38;9.93;;;15.80;99.90;;;;;;5073656;28;20020;-72
2022/10/02 08:47:53;;;;;;;27.35;11.35;;;16.00;99.90;;;;;;5073830;28;20032;-70
2022/10/02 08:50:31;;;;;;;29.55;12.55;;;15.90;99.90;;;;;;5055911;28;20024;-72
2022/10/02 08:52:59;;;;;;;28.98;13.43;;;15.90;99.90;;;;;;5056080;28;20495;-72
2022/10/02 08:55:45;;;;;;;29.92;12.10;;;15.70;99.90;;;;;;5055114;28;20044;-72
2022/10/02 08:58:34;;;;;;;21.52;12.00;;;16.00;99.90;;;;;;5070907;28;20067;-71
2022/10/02 09:01:18;;;;;;;29.25;11.60;;;15.90;99.90;;;;;;5025757;28;20496;-68
2022/10/02 09:04:21;;;;;;;31.80;11.93;;;15.90;99.90;;;;;;5080294;28;20488;-71
2022/10/02 09:07:16;;;;;;;22.88;12.63;;;15.80;99.90;;;;;;5054938;28;20039;-69
2022/10/02 09:10:19;;;;;;;35.03;14.10;;;15.80;99.90;;;;;;4988924;28;20042;-71
2022/10/02 09:12:48;;;;;;;24.80;12.32;;;15.90;99.90;;;;;;5040904;28;20428;-69
2022/10/02 09:15:14;;;;;;;24.65;12.55;;;15.70;99.90;;;;;;5068773;28;20044;-71
2022/10/02 09:18:04;;;;;;;24.27;12.75;;;15.90;99.90;;;;;;5056511;28;20104;-69
2022/10/02 09:20:36;;;;;;;24.30;12.30;;;16.00;99.90;;;;;;5054356;28;20017;-71
2022/10/02 09:23:26;;;;;;;30.48;14.52;;;16.00;99.90;;;;;;5063306;28;20473;-71
2022/10/02 09:25:58;;;;;;;25.55;14.25;;;16.00;99.90;;;;;;5068925;28;20061;-70
2022/10/02 09:28:40;;;;;;;30.42;15.63;;;16.00;99.90;;;;;;5038002;28;20032;-70
2022/10/02 09:31:25;;;;;;;27.67;15.63;;;16.10;99.90;;;;;;5067453;28;20036;-71
2022/10/02 09:33:50;;;;;;;29.42;14.95;;;16.10;99.90;;;;;;5066782;28;20025;-70
2022/10/02 09:36:25;;;;;;;31.05;14.73;;;16.60;99.90;;;;;;5066475;28;20024;-71
2022/10/02 09:39:09;;;;;;;23.38;12.93;;;16.50;99.90;;;;;;5065972;28;20028;-71
2022/10/02 09:42:02;;;;;;;25.52;13.65;;;16.60;99.90;;;;;;5045264;28;20122;-70
2022/10/02 09:45:03;;;;;;;23.08;12.88;;;16.80;99.90;;;;;;5069407;28;20036;-69
2022/10/02 09:47:48;;;;;;;22.88;12.88;;;16.40;99.90;;;;;;5069372;28;20040;-71
2022/10/02 09:50:48;;;;;;;29.30;15.50;;;16.40;99.90;;;;;;5071547;28;20059;-69
2022/10/02 09:53:17;;;;;;;28.00;16.77;;;16.40;99.90;;;;;;5081006;28;20031;-71
2022/10/02 09:55:54;;;;;;;29.40;17.80;;;16.30;99.90;;;;;;5063106;28;20048;-72
2022/10/02 09:58:42;;;;;;;29.45;16.98;;;16.50;99.90;;;;;;5065995;28;20031;-69
2022/10/02 10:01:34;;;;;;;32.58;18.65;;;16.20;99.90;;;;;;5066152;28;20469;-71
2022/10/02 10:03:59;;;;;;;30.73;16.73;;;16.10;99.90;;;;;;5055434;28;20024;-72
2022/10/02 10:06:38;;;;;;;31.83;15.43;;;16.30;99.90;;;;;;5049866;28;20036;-70
2022/10/02 10:09:39;;;;;;;24.50;16.92;;;16.40;99.90;;;;;;5064848;28;20396;-71
2022/10/02 10:12:40;;;;;;;24.50;16.88;;;16.40;99.90;;;;;;5066880;28;20213;-71
2022/10/02 10:15:33;;;;;;;34.95;19.85;;;16.50;99.90;;;;;;5043908;28;20040;-69
2022/10/02 10:18:25;;;;;;;31.02;21.13;;;16.40;99.90;;;;;;5056012;28;20079;-69
2022/10/02 10:21:23;;;;;;;;;;;16.50;99.90;;;;;;5068535;28;20027;-68
2022/10/02 10:24:09;;;;;;;32.00;19.95;;;16.50;99.90;;;;;;5021937;28;20437;-69
2022/10/02 10:26:44;;;;;;;33.42;19.27;;;16.30;99.90;;;;;;5065800;28;20045;-69
2022/10/02 10:29:32;;;;;;;37.13;19.10;;;16.20;99.90;;;;;;5050029;28;20099;-71
2022/10/02 10:32:36;;;;;;;35.95;21.23;;;16.10;99.90;;;;;;5046205;28;20027;-70
2022/10/02 10:35:19;;;;;;;37.78;20.27;;;16.10;99.90;;;;;;5067377;28;20028;-69
2022/10/02 10:41:04;;;;;;;31.58;17.98;;;16.20;99.90;;;;;;5065540;28;20315;-71
2022/10/02 10:43:58;;;;;;;30.65;19.58;;;16.30;99.90;;;;;;5066038;28;20063;-69
2022/10/02 10:46:27;;;;;;;34.40;19.80;;;16.50;99.90;;;;;;5065427;28;20025;-70
2022/10/02 10:49:27;;;;;;;31.85;19.75;;;16.80;99.90;;;;;;5068990;28;20029;-68
2022/10/02 10:52:10;;;;;;;26.52;17.73;;;16.70;99.90;;;;;;5067937;28;20127;-71
2022/10/02 10:54:47;;;;;;;29.77;17.55;;;17.20;99.90;;;;;;5064949;28;20469;-71
2022/10/02 10:57:33;;;;;;;28.75;16.42;;;17.30;99.90;;;;;;5056514;28;20589;-67
2022/10/02 11:00:18;;;;;;;31.75;16.83;;;17.40;99.90;;;;;;5080879;28;20032;-66
2022/10/02 11:02:56;;;;;;;27.90;15.13;;;17.70;99.90;;;;;;5085600;28;20028;-67
2022/10/02 11:05:21;;;;;;;26.85;15.50;;;17.90;99.90;;;;;;5075741;28;20408;-67
2022/10/02 11:08:05;;;;;;;29.60;14.82;;;17.60;99.90;;;;;;5075645;28;20031;-69
2022/10/02 11:10:37;;;;;;;29.85;15.73;;;18.00;99.90;;;;;;5061043;28;20024;-69
2022/10/02 11:13:32;;;;;;;36.72;16.85;;;17.50;99.90;;;;;;5065312;28;20016;-69
2022/10/02 11:16:15;;;;;;;28.88;15.35;;;17.80;99.90;;;;;;5044469;28;20052;-69
2022/10/02 11:19:14;;;;;;;28.70;15.25;;;17.70;99.90;;;;;;5067913;28;20200;-67
2022/10/02 11:22:17;;;;;;;28.38;15.68;;;17.90;99.90;;;;;;5067078;28;20072;-69
2022/10/02 11:25:20;;;;;;;26.48;13.13;;;18.50;99.90;;;;;;5069239;28;20020;-70
2022/10/02 11:28:08;;;;;;;24.50;12.48;;;18.80;99.90;;;;;;5066915;28;20439;-67
2022/10/02 11:30:57;;;;;;;26.58;13.32;;;18.40;99.90;;;;;;5069921;28;20032;-67
2022/10/02 11:33:32;;;;;;;25.88;12.13;;;18.20;99.90;;;;;;5071394;28;20028;-67
2022/10/02 11:36:21;;;;;;;28.55;13.60;;;18.10;99.90;;;;;;5068436;28;20033;-67
2022/10/02 11:39:04;;;;;;;27.13;14.32;;;17.90;99.90;;;;;;5042706;28;20032;-67
2022/10/02 11:41:52;;;;;;;22.23;15.00;;;17.90;99.90;;;;;;5068174;28;20016;-67
2022/10/02 11:45:03;;;;;;;22.92;13.98;;;17.70;99.90;;;;;;5052818;28;20086;-68
2022/10/02 11:47:56;;;;;;;22.55;13.77;;;17.70;99.90;;;;;;5070437;28;20043;-70
2022/10/02 11:50:49;;;;;;;32.70;14.68;;;17.80;99.90;;;;;;5070043;28;20028;-66
2022/10/02 11:53:33;;;;;;;26.35;12.73;;;17.50;99.90;;;;;;5070920;28;20025;-67
2022/10/02 11:56:33;;;;;;;21.38;11.38;;;17.30;99.90;;;;;;5069103;28;20957;-68
2022/10/02 11:59:17;;;;;;;29.02;12.60;;;17.40;99.90;;;;;;5069119;28;20051;-67
2022/10/02 12:02:07;;;;;;;23.17;11.30;;;17.30;99.90;;;;;;5071126;28;20464;-66
2022/10/02 12:04:39;;;;;;;32.05;13.57;;;17.50;99.90;;;;;;5068204;28;20036;-67
2022/10/02 12:08:01;;;;;;;27.90;11.90;;;17.80;99.90;;;;;;5050748;28;20041;-66
2022/10/02 12:11:04;;;;;;;23.85;11.80;;;18.00;99.90;;;;;;5034582;28;20415;-67
2022/10/02 12:13:40;;;;;;;23.40;10.20;;;17.50;99.90;;;;;;5073952;28;20044;-67
2022/10/02 12:16:27;;;;;;;25.42;12.48;;;17.40;99.90;;;;;;5074335;28;20498;-66
2022/10/02 12:19:31;;;;;;;28.70;12.25;;;17.40;99.90;;;;;;5073352;28;20032;-67
2022/10/02 12:28:25;;;;;;;30.13;11.65;;;18.00;99.90;;;;;;5073869;28;20040;-67
2022/10/02 12:31:01;;;;;;;23.20;9.93;;;18.00;99.90;;;;;;5073105;28;20032;-68
2022/10/02 12:34:03;;;;;;;24.48;10.05;;;17.70;99.90;;;;;;5074385;28;20029;-67
2022/10/02 12:36:33;;;;;;;20.58;9.88;;;17.60;99.90;;;;;;5073951;28;20111;-67
2022/10/02 12:39:35;;;;;;;23.42;10.05;;;17.80;99.90;;;;;;5074041;28;20081;-68
2022/10/02 12:42:28;;;;;;;17.00;8.30;;;18.00;99.90;;;;;;5072314;28;20102;-67
2022/10/02 12:45:08;;;;;;;21.08;9.15;;;18.00;99.90;;;;;;5055742;28;20020;-67
2022/10/02 12:47:59;;;;;;;23.98;9.43;;;17.70;99.90;;;;;;5081829;28;20042;-67
2022/10/02 12:50:38;;;;;;;19.92;4.00;;;17.60;99.90;;;;;;5072102;28;20024;-67
2022/10/02 12:53:49;;;;;;;12.55;2.88;;;17.50;99.90;;;;;;5056177;28;20029;-67
2022/10/02 12:56:26;;;;;;;13.32;2.75;;;17.70;99.90;;;;;;5073440;28;20031;-67
2022/10/02 12:58:55;;;;;;;17.88;2.92;;;18.10;99.90;;;;;;5073697;28;20089;-67
2022/10/02 13:01:51;;;;;;;17.10;3.08;;;18.40;99.90;;;;;;5072344;28;20121;-67
2022/10/02 13:04:36;;;;;;;20.85;4.25;;;18.50;99.90;;;;;;5081633;28;20776;-67
2022/10/02 13:07:18;;;;;;;18.77;3.70;;;18.70;99.90;;;;;;5071689;28;20044;-67
2022/10/02 13:09:50;;;;;;;10.57;3.03;;;18.60;99.90;;;;;;5065189;28;20029;-68
2022/10/02 13:12:24;;;;;;;22.08;3.50;;;19.00;99.90;;;;;;5069120;28;20484;-67
2022/10/02 13:15:24;;;;;;;19.50;4.10;;;19.00;99.90;;;;;;5069046;28;20044;-66
2022/10/02 13:18:18;;;;;;;13.25;2.58;;;18.50;99.90;;;;;;5069127;28;20020;-67
2022/10/02 13:21:02;;;;;;;18.00;3.08;;;18.70;99.90;;;;;;5018032;28;20056;-68
2022/10/02 13:23:43;;;;;;;17.40;3.38;;;18.60;99.90;;;;;;5068082;28;20028;-66
2022/10/02 13:26:24;;;;;;;17.25;2.42;;;18.70;99.90;;;;;;5068188;28;20024;-66
2022/10/02 13:29:26;;;;;;;15.73;2.47;;;19.00;99.90;;;;;;5069295;28;20027;-67
2022/10/02 13:32:03;;;;;;;;;;;19.00;99.90;;;;;;5068029;28;20024;-67
2022/10/02 13:34:42;;;;;;;11.20;3.38;;;19.00;99.90;;;;;;5068117;28;19917;-67
2022/10/02 13:37:39;;;;;;;15.45;3.55;;;18.80;99.90;;;;;;5052818;28;20473;-67
2022/10/02 13:40:25;;;;;;;17.40;2.75;;;18.60;99.90;;;;;;5071120;28;20385;-67
2022/10/02 13:43:33;;;;;;;16.40;2.85;;;19.10;99.90;;;;;;5071532;28;20520;-67
2022/10/02 13:46:43;;;;;;;13.73;2.63;;;19.50;99.90;;;;;;4982936;28;20042;-68
2022/10/02 13:49:28;;;;;;;14.02;2.78;;;20.80;99.90;;;;;;4978840;28;20141;-68
2022/10/02 13:52:25;;;;;;;15.30;2.67;;;21.10;99.90;;;;;;5084862;28;20468;-71
2022/10/02 13:55:04;;;;;;;11.80;2.38;;;20.50;99.90;;;;;;5073404;28;20043;-68
2022/10/02 13:57:38;;;;;;;13.90;3.33;;;20.00;99.90;;;;;;5058320;28;20107;-70
2022/10/02 14:00:54;;;;;;;14.15;2.83;;;19.40;99.90;;;;;;5068517;28;20089;-70
2022/10/02 14:03:30;;;;;;;14.45;3.08;;;19.30;99.90;;;;;;5078240;28;20032;-70
2022/10/02 14:06:13;;;;;;;18.10;3.70;;;18.90;99.90;;;;;;5074668;28;20036;-71